Time,TemperatureF,DewpointF,PressureIn,WindDirection,WindDirectionDegrees,WindSpeedMPH,WindSpeedGustMPH,Humidity,HourlyPrecipIn,Conditions,Clouds,dailyrainin,SoftwareType,DateUTC
2013-02-16 00:01:00,51.2,29.4,30.22,East,90,0.0,-999.0,43,0.00,,,0.00,Wunderground v.1.15,2013-02-16 08:01:00,
2013-02-16 00:06:00,51.2,29.4,30.22,East,90,0.0,-999.0,43,0.00,,,0.00,Wunderground v.1.15,2013-02-16 08:06:00,
2013-02-16 00:11:00,51.2,29.4,30.22,East,90,0.0,-999.0,43,0.00,,,0.00,Wunderground v.1.15,2013-02-16 08:11:00,
2013-02-16 00:16:00,51.2,29.4,30.22,East,90,0.0,-999.0,43,0.00,,,0.00,Wunderground v.1.15,2013-02-16 08:16:00,
2013-02-16 00:21:00,51.2,29.4,30.22,East,90,0.0,-999.0,43,0.00,,,0.00,Wunderground v.1.15,2013-02-16 08:21:00,
2013-02-16 00:26:00,51.2,29.4,30.22,East,90,0.0,-999.0,43,0.00,,,0.00,Wunderground v.1.15,2013-02-16 08:26:00,
2013-02-16 00:31:00,51.2,29.4,30.22,East,90,0.0,-999.0,43,0.00,,,0.00,Wunderground v.1.15,2013-02-16 08:31:00,
2013-02-16 00:36:00,51.2,29.4,30.22,East,90,0.0,-999.0,43,0.00,,,0.00,Wunderground v.1.15,2013-02-16 08:36:00,
2013-02-16 00:41:00,51.2,29.4,30.22,East,90,0.0,-999.0,43,0.00,,,0.00,Wunderground v.1.15,2013-02-16 08:41:00,
2013-02-16 00:46:00,50.6,28.3,30.22,East,90,0.0,-999.0,42,0.00,,,0.00,Wunderground v.1.15,2013-02-16 08:46:00,
2013-02-16 00:51:00,50.6,28.3,30.22,East,90,0.0,-999.0,42,0.00,,,0.00,Wunderground v.1.15,2013-02-16 08:51:00,
2013-02-16 00:56:00,50.6,28.3,30.22,East,90,0.0,-999.0,42,0.00,,,0.00,Wunderground v.1.15,2013-02-16 08:56:00,
2013-02-16 01:01:00,50.6,28.3,30.22,East,90,0.0,-999.0,42,0.00,,,0.00,Wunderground v.1.15,2013-02-16 09:01:00,
2013-02-16 01:06:00,50.6,28.3,30.22,East,90,0.0,-999.0,42,0.00,,,0.00,Wunderground v.1.15,2013-02-16 09:06:00,
2013-02-16 01:11:00,50.6,28.3,30.22,East,90,0.0,-999.0,42,0.00,,,0.00,Wunderground v.1.15,2013-02-16 09:11:00,
2013-02-16 01:16:00,50.6,27.1,30.22,East,90,1.0,-999.0,40,0.00,,,0.00,Wunderground v.1.15,2013-02-16 09:16:00,
2013-02-16 01:21:00,50.6,27.1,30.22,East,90,1.0,-999.0,40,0.00,,,0.00,Wunderground v.1.15,2013-02-16 09:21:00,
2013-02-16 01:26:00,50.6,27.1,30.22,East,90,1.0,-999.0,40,0.00,,,0.00,Wunderground v.1.15,2013-02-16 09:26:00,
2013-02-16 01:31:00,50.6,27.1,30.22,East,90,1.0,-999.0,40,0.00,,,0.00,Wunderground v.1.15,2013-02-16 09:31:00,
2013-02-16 01:36:00,50.6,27.1,30.22,East,90,1.0,-999.0,40,0.00,,,0.00,Wunderground v.1.15,2013-02-16 09:36:00,
2013-02-16 01:41:00,50.6,27.1,30.22,East,90,1.0,-999.0,40,0.00,,,0.00,Wunderground v.1.15,2013-02-16 09:41:00,
2013-02-16 01:46:00,50.5,25.2,30.22,East,90,0.0,-999.0,37,0.00,,,0.00,Wunderground v.1.15,2013-02-16 09:46:00,
2013-02-16 01:51:00,50.5,25.2,30.22,East,90,0.0,-999.0,37,0.00,,,0.00,Wunderground v.1.15,2013-02-16 09:51:00,
2013-02-16 01:56:00,50.5,25.2,30.22,East,90,0.0,-999.0,37,0.00,,,0.00,Wunderground v.1.15,2013-02-16 09:56:00,
2013-02-16 02:01:00,50.5,25.2,30.22,East,90,0.0,-999.0,37,0.00,,,0.00,Wunderground v.1.15,2013-02-16 10:01:00,
2013-02-16 02:06:00,50.5,25.2,30.22,East,90,0.0,-999.0,37,0.00,,,0.00,Wunderground v.1.15,2013-02-16 10:06:00,
2013-02-16 02:11:00,50.5,25.2,30.22,East,90,0.0,-999.0,37,0.00,,,0.00,Wunderground v.1.15,2013-02-16 10:11:00,
2013-02-16 02:16:00,49.5,24.9,30.21,ENE,68,0.0,-999.0,38,0.00,,,0.00,Wunderground v.1.15,2013-02-16 10:16:00,
2013-02-16 02:21:00,49.5,24.9,30.21,ENE,68,0.0,-999.0,38,0.00,,,0.00,Wunderground v.1.15,2013-02-16 10:21:00,
2013-02-16 02:26:00,49.5,24.9,30.21,ENE,68,0.0,-999.0,38,0.00,,,0.00,Wunderground v.1.15,2013-02-16 10:26:00,
2013-02-16 02:31:00,49.5,24.9,30.21,ENE,68,0.0,-999.0,38,0.00,,,0.00,Wunderground v.1.15,2013-02-16 10:31:00,
2013-02-16 02:36:00,49.5,24.9,30.21,ENE,68,0.0,-999.0,38,0.00,,,0.00,Wunderground v.1.15,2013-02-16 10:36:00,
2013-02-16 02:41:00,49.5,24.9,30.21,ENE,68,0.0,-999.0,38,0.00,,,0.00,Wunderground v.1.15,2013-02-16 10:41:00,
2013-02-16 02:46:00,48.6,24.7,30.20,East,90,0.0,-999.0,39,0.00,,,0.00,Wunderground v.1.15,2013-02-16 10:46:00,
2013-02-16 02:51:00,48.6,24.7,30.20,East,90,0.0,-999.0,39,0.00,,,0.00,Wunderground v.1.15,2013-02-16 10:51:00,
2013-02-16 02:56:00,48.6,24.7,30.20,East,90,0.0,-999.0,39,0.00,,,0.00,Wunderground v.1.15,2013-02-16 10:56:00,
2013-02-16 03:01:00,48.6,24.7,30.20,East,90,0.0,-999.0,39,0.00,,,0.00,Wunderground v.1.15,2013-02-16 11:01:00,
2013-02-16 03:06:00,48.6,24.7,30.20,East,90,0.0,-999.0,39,0.00,,,0.00,Wunderground v.1.15,2013-02-16 11:06:00,
2013-02-16 03:11:00,48.6,24.7,30.20,East,90,0.0,-999.0,39,0.00,,,0.00,Wunderground v.1.15,2013-02-16 11:11:00,
2013-02-16 03:16:00,47.5,24.9,30.19,ENE,68,2.0,-999.0,41,0.00,,,0.00,Wunderground v.1.15,2013-02-16 11:16:00,
2013-02-16 03:21:00,47.5,24.9,30.19,ENE,68,2.0,-999.0,41,0.00,,,0.00,Wunderground v.1.15,2013-02-16 11:21:00,
2013-02-16 03:26:00,47.5,24.9,30.19,ENE,68,2.0,-999.0,41,0.00,,,0.00,Wunderground v.1.15,2013-02-16 11:26:00,
2013-02-16 03:31:00,47.5,24.9,30.19,ENE,68,2.0,-999.0,41,0.00,,,0.00,Wunderground v.1.15,2013-02-16 11:31:00,
2013-02-16 03:36:00,47.5,24.9,30.19,ENE,68,2.0,-999.0,41,0.00,,,0.00,Wunderground v.1.15,2013-02-16 11:36:00,
2013-02-16 03:41:00,47.5,24.9,30.19,ENE,68,2.0,-999.0,41,0.00,,,0.00,Wunderground v.1.15,2013-02-16 11:41:00,
2013-02-16 03:46:00,48.6,22.8,30.18,ENE,68,3.0,-999.0,36,0.00,,,0.00,Wunderground v.1.15,2013-02-16 11:46:00,
2013-02-16 03:51:00,48.6,22.8,30.18,ENE,68,3.0,-999.0,36,0.00,,,0.00,Wunderground v.1.15,2013-02-16 11:51:00,
2013-02-16 03:56:00,48.6,22.8,30.18,ENE,68,3.0,-999.0,36,0.00,,,0.00,Wunderground v.1.15,2013-02-16 11:56:00,
2013-02-16 04:01:00,48.6,22.8,30.18,ENE,68,3.0,-999.0,36,0.00,,,0.00,Wunderground v.1.15,2013-02-16 12:01:00,
2013-02-16 04:06:00,48.6,22.8,30.18,ENE,68,3.0,-999.0,36,0.00,,,0.00,Wunderground v.1.15,2013-02-16 12:06:00,
2013-02-16 04:11:00,48.6,22.8,30.18,ENE,68,3.0,-999.0,36,0.00,,,0.00,Wunderground v.1.15,2013-02-16 12:11:00,
2013-02-16 04:16:00,48.7,22.2,30.18,East,90,2.0,-999.0,35,0.00,,,0.00,Wunderground v.1.15,2013-02-16 12:16:00,
2013-02-16 04:21:00,48.7,22.2,30.18,East,90,2.0,-999.0,35,0.00,,,0.00,Wunderground v.1.15,2013-02-16 12:21:00,
2013-02-16 04:26:00,48.7,22.2,30.18,East,90,2.0,-999.0,35,0.00,,,0.00,Wunderground v.1.15,2013-02-16 12:26:00,
2013-02-16 04:31:00,48.7,22.2,30.18,East,90,2.0,-999.0,35,0.00,,,0.00,Wunderground v.1.15,2013-02-16 12:31:00,
2013-02-16 04:36:00,48.7,22.2,30.18,East,90,2.0,-999.0,35,0.00,,,0.00,Wunderground v.1.15,2013-02-16 12:36:00,
2013-02-16 04:41:00,48.7,22.2,30.18,East,90,2.0,-999.0,35,0.00,,,0.00,Wunderground v.1.15,2013-02-16 12:41:00,
2013-02-16 04:46:00,49.4,21.5,30.18,East,90,2.0,-999.0,33,0.00,,,0.00,Wunderground v.1.15,2013-02-16 12:46:00,
2013-02-16 04:51:00,49.4,21.5,30.18,East,90,2.0,-999.0,33,0.00,,,0.00,Wunderground v.1.15,2013-02-16 12:51:00,
2013-02-16 04:56:00,49.4,21.5,30.18,East,90,2.0,-999.0,33,0.00,,,0.00,Wunderground v.1.15,2013-02-16 12:56:00,
2013-02-16 05:01:00,49.4,21.5,30.18,East,90,2.0,-999.0,33,0.00,,,0.00,Wunderground v.1.15,2013-02-16 13:01:00,
2013-02-16 05:06:00,49.4,21.5,30.18,East,90,2.0,-999.0,33,0.00,,,0.00,Wunderground v.1.15,2013-02-16 13:06:00,
2013-02-16 05:11:00,49.4,21.5,30.18,East,90,2.0,-999.0,33,0.00,,,0.00,Wunderground v.1.15,2013-02-16 13:11:00,
2013-02-16 05:16:00,49.2,21.3,30.18,East,90,2.0,-999.0,33,0.00,,,0.00,Wunderground v.1.15,2013-02-16 13:16:00,
2013-02-16 05:21:00,49.2,21.3,30.18,East,90,2.0,-999.0,33,0.00,,,0.00,Wunderground v.1.15,2013-02-16 13:21:00,
2013-02-16 05:26:00,49.2,21.3,30.18,East,90,2.0,-999.0,33,0.00,,,0.00,Wunderground v.1.15,2013-02-16 13:26:00,
2013-02-16 05:31:00,49.2,21.3,30.18,East,90,2.0,-999.0,33,0.00,,,0.00,Wunderground v.1.15,2013-02-16 13:31:00,
2013-02-16 05:36:00,49.2,21.3,30.18,East,90,2.0,-999.0,33,0.00,,,0.00,Wunderground v.1.15,2013-02-16 13:36:00,
2013-02-16 05:41:00,49.2,21.3,30.18,East,90,2.0,-999.0,33,0.00,,,0.00,Wunderground v.1.15,2013-02-16 13:41:00,
2013-02-16 05:46:00,48.5,22.1,30.17,ENE,68,1.0,-999.0,35,0.00,,,0.00,Wunderground v.1.15,2013-02-16 13:46:00,
2013-02-16 05:51:00,48.5,22.1,30.17,ENE,68,1.0,-999.0,35,0.00,,,0.00,Wunderground v.1.15,2013-02-16 13:51:00,
2013-02-16 05:56:00,48.5,22.1,30.17,ENE,68,1.0,-999.0,35,0.00,,,0.00,Wunderground v.1.15,2013-02-16 13:56:00,
2013-02-16 06:01:00,48.5,22.1,30.17,ENE,68,1.0,-999.0,35,0.00,,,0.00,Wunderground v.1.15,2013-02-16 14:01:00,
2013-02-16 06:06:00,48.5,22.1,30.17,ENE,68,1.0,-999.0,35,0.00,,,0.00,Wunderground v.1.15,2013-02-16 14:06:00,
2013-02-16 06:11:00,48.5,22.1,30.17,ENE,68,1.0,-999.0,35,0.00,,,0.00,Wunderground v.1.15,2013-02-16 14:11:00,
2013-02-16 06:16:00,49.1,21.9,30.17,East,90,1.0,-999.0,34,0.00,,,0.00,Wunderground v.1.15,2013-02-16 14:16:00,
2013-02-16 06:21:00,49.1,21.9,30.17,East,90,1.0,-999.0,34,0.00,,,0.00,Wunderground v.1.15,2013-02-16 14:21:00,
2013-02-16 06:26:00,49.1,21.9,30.17,East,90,1.0,-999.0,34,0.00,,,0.00,Wunderground v.1.15,2013-02-16 14:26:00,
2013-02-16 06:31:00,49.1,21.9,30.17,East,90,1.0,-999.0,34,0.00,,,0.00,Wunderground v.1.15,2013-02-16 14:31:00,
2013-02-16 06:36:00,49.1,21.9,30.17,East,90,1.0,-999.0,34,0.00,,,0.00,Wunderground v.1.15,2013-02-16 14:36:00,
2013-02-16 06:41:00,49.1,21.9,30.17,East,90,1.0,-999.0,34,0.00,,,0.00,Wunderground v.1.15,2013-02-16 14:41:00,
2013-02-16 06:46:00,49.2,22.0,30.16,East,90,1.0,-999.0,34,0.00,,,0.00,Wunderground v.1.15,2013-02-16 14:46:00,
2013-02-16 06:51:00,49.2,22.0,30.16,East,90,1.0,-999.0,34,0.00,,,0.00,Wunderground v.1.15,2013-02-16 14:51:00,
2013-02-16 06:56:00,49.2,22.0,30.16,East,90,1.0,-999.0,34,0.00,,,0.00,Wunderground v.1.15,2013-02-16 14:56:00,
2013-02-16 07:01:00,49.2,22.0,30.16,East,90,1.0,-999.0,34,0.00,,,0.00,Wunderground v.1.15,2013-02-16 15:01:00,
2013-02-16 07:06:00,49.2,22.0,30.16,East,90,1.0,-999.0,34,0.00,,,0.00,Wunderground v.1.15,2013-02-16 15:06:00,
2013-02-16 07:11:00,49.2,22.0,30.16,East,90,1.0,-999.0,34,0.00,,,0.00,Wunderground v.1.15,2013-02-16 15:11:00,
2013-02-16 07:16:00,50.4,22.3,30.16,ENE,68,2.0,-999.0,33,0.00,,,0.00,Wunderground v.1.15,2013-02-16 15:16:00,
2013-02-16 07:21:00,50.4,22.3,30.16,ENE,68,2.0,-999.0,33,0.00,,,0.00,Wunderground v.1.15,2013-02-16 15:21:00,
2013-02-16 07:26:00,50.4,22.3,30.16,ENE,68,2.0,-999.0,33,0.00,,,0.00,Wunderground v.1.15,2013-02-16 15:26:00,
2013-02-16 07:31:00,50.4,22.3,30.16,ENE,68,2.0,-999.0,33,0.00,,,0.00,Wunderground v.1.15,2013-02-16 15:31:00,
2013-02-16 07:36:00,50.4,22.3,30.16,ENE,68,2.0,-999.0,33,0.00,,,0.00,Wunderground v.1.15,2013-02-16 15:36:00,
2013-02-16 07:41:00,50.4,22.3,30.16,ENE,68,2.0,-999.0,33,0.00,,,0.00,Wunderground v.1.15,2013-02-16 15:41:00,
2013-02-16 07:46:00,51.3,22.4,30.16,East,90,2.0,-999.0,32,0.00,,,0.00,Wunderground v.1.15,2013-02-16 15:46:00,
2013-02-16 07:51:00,51.3,22.4,30.16,East,90,2.0,-999.0,32,0.00,,,0.00,Wunderground v.1.15,2013-02-16 15:51:00,
2013-02-16 07:56:00,51.3,22.4,30.16,East,90,2.0,-999.0,32,0.00,,,0.00,Wunderground v.1.15,2013-02-16 15:56:00,
2013-02-16 08:01:00,51.3,22.4,30.16,East,90,2.0,-999.0,32,0.00,,,0.00,Wunderground v.1.15,2013-02-16 16:01:00,
2013-02-16 08:06:00,51.3,22.4,30.16,East,90,2.0,-999.0,32,0.00,,,0.00,Wunderground v.1.15,2013-02-16 16:06:00,
2013-02-16 08:11:00,51.3,22.4,30.16,East,90,2.0,-999.0,32,0.00,,,0.00,Wunderground v.1.15,2013-02-16 16:11:00,
2013-02-16 08:16:00,53.3,24.2,30.16,ENE,68,2.0,-999.0,32,0.00,,,0.00,Wunderground v.1.15,2013-02-16 16:16:00,
2013-02-16 08:21:00,53.3,24.2,30.16,ENE,68,2.0,-999.0,32,0.00,,,0.00,Wunderground v.1.15,2013-02-16 16:21:00,
2013-02-16 08:26:00,53.3,24.2,30.16,ENE,68,2.0,-999.0,32,0.00,,,0.00,Wunderground v.1.15,2013-02-16 16:26:00,
2013-02-16 08:31:00,53.3,24.2,30.16,ENE,68,2.0,-999.0,32,0.00,,,0.00,Wunderground v.1.15,2013-02-16 16:31:00,
2013-02-16 08:36:00,53.3,24.2,30.16,ENE,68,2.0,-999.0,32,0.00,,,0.00,Wunderground v.1.15,2013-02-16 16:36:00,
2013-02-16 08:41:00,53.3,24.2,30.16,ENE,68,2.0,-999.0,32,0.00,,,0.00,Wunderground v.1.15,2013-02-16 16:41:00,
2013-02-16 08:46:00,56.0,25.0,30.16,East,90,2.0,-999.0,30,0.00,,,0.00,Wunderground v.1.15,2013-02-16 16:46:00,
2013-02-16 08:51:00,56.0,25.0,30.16,East,90,2.0,-999.0,30,0.00,,,0.00,Wunderground v.1.15,2013-02-16 16:51:00,
2013-02-16 08:56:00,56.0,25.0,30.16,East,90,2.0,-999.0,30,0.00,,,0.00,Wunderground v.1.15,2013-02-16 16:56:00,
2013-02-16 09:01:00,56.0,25.0,30.16,East,90,2.0,-999.0,30,0.00,,,0.00,Wunderground v.1.15,2013-02-16 17:01:00,
2013-02-16 09:06:00,56.0,25.0,30.16,East,90,2.0,-999.0,30,0.00,,,0.00,Wunderground v.1.15,2013-02-16 17:06:00,
2013-02-16 09:11:00,56.0,25.0,30.16,East,90,2.0,-999.0,30,0.00,,,0.00,Wunderground v.1.15,2013-02-16 17:11:00,
2013-02-16 09:16:00,58.9,26.7,30.16,East,90,2.0,-999.0,29,0.00,,,0.00,Wunderground v.1.15,2013-02-16 17:16:00,
2013-02-16 09:21:00,58.9,26.7,30.16,East,90,2.0,-999.0,29,0.00,,,0.00,Wunderground v.1.15,2013-02-16 17:21:00,
2013-02-16 09:26:00,58.9,26.7,30.16,East,90,2.0,-999.0,29,0.00,,,0.00,Wunderground v.1.15,2013-02-16 17:26:00,
2013-02-16 09:31:00,58.9,26.7,30.16,East,90,2.0,-999.0,29,0.00,,,0.00,Wunderground v.1.15,2013-02-16 17:31:00,
2013-02-16 09:36:00,58.9,26.7,30.16,East,90,2.0,-999.0,29,0.00,,,0.00,Wunderground v.1.15,2013-02-16 17:36:00,
2013-02-16 09:41:00,58.9,26.7,30.16,East,90,2.0,-999.0,29,0.00,,,0.00,Wunderground v.1.15,2013-02-16 17:41:00,
2013-02-16 09:46:00,59.1,30.0,30.15,East,90,1.0,-999.0,33,0.00,,,0.00,Wunderground v.1.15,2013-02-16 17:46:00,
2013-02-16 09:51:00,59.1,30.0,30.15,East,90,1.0,-999.0,33,0.00,,,0.00,Wunderground v.1.15,2013-02-16 17:51:00,
2013-02-16 09:56:00,59.1,30.0,30.15,East,90,1.0,-999.0,33,0.00,,,0.00,Wunderground v.1.15,2013-02-16 17:56:00,
2013-02-16 10:01:00,59.1,30.0,30.15,East,90,1.0,-999.0,33,0.00,,,0.00,Wunderground v.1.15,2013-02-16 18:01:00,
2013-02-16 11:10:00,63.6,29.9,30.14,East,86,1.0,1.0,28,0.00,,,0.00,Wunderground v.1.15,2013-02-16 19:10:00,
2013-02-16 11:20:00,64.6,27.9,30.14,SE,130,0.0,0.0,25,0.00,,,0.00,Wunderground v.1.15,2013-02-16 19:20:00,
2013-02-16 11:30:00,65.2,31.2,30.14,SSE,151,1.0,1.0,28,0.00,,,0.00,Wunderground v.1.15,2013-02-16 19:30:00,
2013-02-16 21:23:00,48.2,39.2,30.01,East,90,1.0,-999.0,71,0.00,,,0.00,Wunderground v.1.15,2013-02-17 05:23:00,
2013-02-16 21:28:00,48.2,39.2,30.01,East,90,1.0,-999.0,71,0.00,,,0.00,Wunderground v.1.15,2013-02-17 05:28:00,
2013-02-16 21:33:00,48.2,39.2,30.01,East,90,1.0,-999.0,71,0.00,,,0.00,Wunderground v.1.15,2013-02-17 05:33:00,
2013-02-16 21:38:00,48.2,39.2,30.01,East,90,1.0,-999.0,71,0.00,,,0.00,Wunderground v.1.15,2013-02-17 05:38:00,
2013-02-16 21:43:00,48.2,39.2,30.01,East,90,1.0,-999.0,71,0.00,,,0.00,Wunderground v.1.15,2013-02-17 05:43:00,
2013-02-16 21:48:00,47.3,38.7,30.00,East,90,2.0,-999.0,72,0.00,,,0.00,Wunderground v.1.15,2013-02-17 05:48:00,
2013-02-16 21:53:00,47.3,38.7,30.00,East,90,2.0,-999.0,72,0.00,,,0.00,Wunderground v.1.15,2013-02-17 05:53:00,
2013-02-16 21:58:00,47.3,38.7,30.00,East,90,2.0,-999.0,72,0.00,,,0.00,Wunderground v.1.15,2013-02-17 05:58:00,
2013-02-16 22:03:00,47.3,38.7,30.00,East,90,2.0,-999.0,72,0.00,,,0.00,Wunderground v.1.15,2013-02-17 06:03:00,
2013-02-16 22:08:00,47.3,38.7,30.00,East,90,2.0,-999.0,72,0.00,,,0.00,Wunderground v.1.15,2013-02-17 06:08:00,
2013-02-16 22:13:00,47.3,38.7,30.00,East,90,2.0,-999.0,72,0.00,,,0.00,Wunderground v.1.15,2013-02-17 06:13:00,
2013-02-16 22:18:00,47.4,38.1,30.00,East,90,1.0,-999.0,70,0.00,,,0.00,Wunderground v.1.15,2013-02-17 06:18:00,
2013-02-16 22:23:00,47.4,38.1,30.00,East,90,1.0,-999.0,70,0.00,,,0.00,Wunderground v.1.15,2013-02-17 06:23:00,
2013-02-16 22:28:00,47.4,38.1,30.00,East,90,1.0,-999.0,70,0.00,,,0.00,Wunderground v.1.15,2013-02-17 06:28:00,
2013-02-16 22:33:00,47.4,38.1,30.00,East,90,1.0,-999.0,70,0.00,,,0.00,Wunderground v.1.15,2013-02-17 06:33:00,
2013-02-16 22:38:00,47.4,38.1,30.00,East,90,1.0,-999.0,70,0.00,,,0.00,Wunderground v.1.15,2013-02-17 06:38:00,
2013-02-16 22:43:00,47.4,38.1,30.00,East,90,1.0,-999.0,70,0.00,,,0.00,Wunderground v.1.15,2013-02-17 06:43:00,
2013-02-16 22:48:00,48.5,38.0,30.00,East,90,0.0,-999.0,67,0.00,,,0.00,Wunderground v.1.15,2013-02-17 06:48:00,
2013-02-16 22:53:00,48.5,38.0,30.00,East,90,0.0,-999.0,67,0.00,,,0.00,Wunderground v.1.15,2013-02-17 06:53:00,
2013-02-16 22:58:00,48.5,38.0,30.00,East,90,0.0,-999.0,67,0.00,,,0.00,Wunderground v.1.15,2013-02-17 06:58:00,
2013-02-16 23:03:00,48.5,38.0,30.00,East,90,0.0,-999.0,67,0.00,,,0.00,Wunderground v.1.15,2013-02-17 07:03:00,
2013-02-16 23:08:00,48.5,38.0,30.00,East,90,0.0,-999.0,67,0.00,,,0.00,Wunderground v.1.15,2013-02-17 07:08:00,
2013-02-16 23:13:00,48.5,38.0,30.00,East,90,0.0,-999.0,67,0.00,,,0.00,Wunderground v.1.15,2013-02-17 07:13:00,
2013-02-16 23:18:00,48.9,37.3,29.99,East,90,1.0,-999.0,64,0.00,,,0.00,Wunderground v.1.15,2013-02-17 07:18:00,
2013-02-16 23:23:00,48.9,37.3,29.99,East,90,1.0,-999.0,64,0.00,,,0.00,Wunderground v.1.15,2013-02-17 07:23:00,
2013-02-16 23:28:00,48.9,37.3,29.99,East,90,1.0,-999.0,64,0.00,,,0.00,Wunderground v.1.15,2013-02-17 07:28:00,
2013-02-16 23:33:00,48.9,37.3,29.99,East,90,1.0,-999.0,64,0.00,,,0.00,Wunderground v.1.15,2013-02-17 07:33:00,
2013-02-16 23:38:00,48.9,37.3,29.99,East,90,1.0,-999.0,64,0.00,,,0.00,Wunderground v.1.15,2013-02-17 07:38:00,
2013-02-16 23:43:00,48.9,37.3,29.99,East,90,1.0,-999.0,64,0.00,,,0.00,Wunderground v.1.15,2013-02-17 07:43:00,
2013-02-16 23:48:00,48.6,36.6,29.99,East,90,2.0,-999.0,63,0.00,,,0.00,Wunderground v.1.15,2013-02-17 07:48:00,
2013-02-16 23:53:00,48.6,36.6,29.99,East,90,2.0,-999.0,63,0.00,,,0.00,Wunderground v.1.15,2013-02-17 07:53:00,
2013-02-16 23:58:00,48.6,36.6,29.99,East,90,2.0,-999.0,63,0.00,,,0.00,Wunderground v.1.15,2013-02-17 07:58:00,